Time;durP1;ratioP1;P1;durP2;ratioP2;P2;SDS_P1;SDS_P2;PMS_P1;PMS_P2;Temp;Humidity;BMP_temperature;BMP_pressure;BME280_temperature;BME280_humidity;BME280_pressure;Samples;Min_cycle;Max_cycle;Signal;HPM_P1;HPM_P2
2022/01/25 00:10:01;;;;;;;16.33;11.07;;;;;;;;;;7358786;19;20124;-43
2022/01/25 00:15:24;;;;;;;22.90;12.18;;;;;;;;;;7364709;19;20564;-42
2022/01/25 00:26:16;;;;;;;22.35;11.85;;;;;;;;;;7368380;19;20139;-42
2022/01/25 00:28:51;;;;;;;19.02;10.80;;;;;;;;;;7364370;19;20147;-42
2022/01/25 00:31:24;;;;;;;19.45;11.68;;;;;;;;;;7363990;19;20131;-42
2022/01/25 00:33:54;;;;;;;21.90;11.32;;;;;;;;;;7366787;19;20127;-43
2022/01/25 00:36:25;;;;;;;19.10;11.25;;;;;;;;;;7373561;19;20141;-42
2022/01/25 00:38:59;;;;;;;23.17;12.25;;;;;;;;;;7354792;19;20135;-42
2022/01/25 00:41:29;;;;;;;19.70;11.23;;;;;;;;;;7375472;19;20163;-42
2022/01/25 00:44:02;;;;;;;20.70;11.73;;;;;;;;;;7376226;19;20128;-43
2022/01/25 00:46:32;;;;;;;21.27;10.68;;;;;;;;;;7368940;19;20466;-42
2022/01/25 00:49:07;;;;;;;18.00;10.90;;;;;;;;;;7374418;19;20158;-42
2022/01/25 00:54:30;;;;;;;18.92;12.40;;;;;;;;;;7371187;19;20135;-42
2022/01/25 00:57:00;;;;;;;20.30;12.15;;;;;;;;;;7372641;19;20602;-41
2022/01/25 00:59:35;;;;;;;23.88;12.63;;;;;;;;;;7371857;19;20818;-42
2022/01/25 01:02:06;;;;;;;18.92;11.57;;;;;;;;;;7361714;19;20163;-38
2022/01/25 01:04:36;;;;;;;18.73;12.35;;;;;;;;;;7368653;19;20412;-38
2022/01/25 01:07:08;;;;;;;25.58;11.63;;;;;;;;;;7363096;19;20741;-37
2022/01/25 01:09:40;;;;;;;16.27;10.30;;;;;;;;;;7364412;19;20165;-41
2022/01/25 01:12:14;;;;;;;24.33;12.60;;;;;;;;;;7361923;19;20215;-42
2022/01/25 01:15:05;;;;;;;20.95;13.10;;;;;;;;;;7369063;19;20127;-42
2022/01/25 01:31:27;;;;;;;19.98;12.55;;;;;;;;;;7367776;19;20139;-42
2022/01/25 01:34:20;;;;;;;19.23;11.50;;;;;;;;;;7370424;19;20127;-42
2022/01/25 01:37:17;;;;;;;20.48;11.65;;;;;;;;;;7364594;19;20128;-43
2022/01/25 01:40:07;;;;;;;19.15;11.63;;;;;;;;;;7370591;19;20505;-42
2022/01/25 01:45:41;;;;;;;18.67;11.63;;;;;;;;;;7346750;19;20128;-42
2022/01/25 01:48:25;;;;;;;21.63;12.63;;;;;;;;;;7367462;19;20159;-42
2022/01/25 01:51:03;;;;;;;21.70;11.30;;;;;;;;;;7368446;19;20140;-42
2022/01/25 01:53:35;;;;;;;17.00;11.15;;;;;;;;;;7368271;19;20134;-41
2022/01/25 01:56:07;;;;;;;20.58;12.38;;;;;;;;;;7366925;19;20127;-42
2022/01/25 01:58:40;;;;;;;22.35;13.27;;;;;;;;;;7369566;19;20143;-42
2022/01/25 02:01:12;;;;;;;24.33;13.43;;;;;;;;;;7348495;19;20172;-43
2022/01/25 02:03:44;;;;;;;21.27;12.05;;;;;;;;;;7353423;19;20147;-42
2022/01/25 02:06:16;;;;;;;21.20;13.18;;;;;;;;;;7369885;19;20504;-42
2022/01/25 02:08:49;;;;;;;26.27;14.40;;;;;;;;;;7371351;19;20140;-44
2022/01/25 02:11:18;;;;;;;21.38;12.57;;;;;;;;;;7368209;19;20128;-42
2022/01/25 02:13:51;;;;;;;18.65;12.40;;;;;;;;;;7369328;19;20140;-43
2022/01/25 02:16:37;;;;;;;27.40;13.05;;;;;;;;;;7366728;19;20128;-42
2022/01/25 02:24:40;;;;;;;24.55;13.63;;;;;;;;;;7369762;19;20614;-43
2022/01/25 02:27:12;;;;;;;21.55;12.75;;;;;;;;;;7369280;19;20135;-42
2022/01/25 02:29:42;;;;;;;23.42;12.98;;;;;;;;;;7369311;19;20128;-42
2022/01/25 02:32:12;;;;;;;23.27;12.30;;;;;;;;;;7363625;19;20132;-43
2022/01/25 02:34:41;;;;;;;22.60;13.15;;;;;;;;;;7366954;19;21462;-42
2022/01/25 02:37:15;;;;;;;24.98;13.18;;;;;;;;;;7366506;19;20136;-42
2022/01/25 02:39:47;;;;;;;24.20;15.00;;;;;;;;;;7366149;19;20143;-42
2022/01/25 02:42:19;;;;;;;27.95;13.35;;;;;;;;;;7364269;19;20119;-42
2022/01/25 02:44:48;;;;;;;21.48;12.80;;;;;;;;;;7372643;19;20128;-43
2022/01/25 02:50:06;;;;;;;24.63;13.48;;;;;;;;;;7362217;19;20521;-43
2022/01/25 02:52:43;;;;;;;24.58;12.90;;;;;;;;;;7366031;19;20135;-41
2022/01/25 02:55:13;;;;;;;22.90;13.88;;;;;;;;;;7354350;19;20138;-42
2022/01/25 02:57:42;;;;;;;20.83;13.38;;;;;;;;;;7374117;19;20143;-42
2022/01/25 03:00:15;;;;;;;25.63;14.10;;;;;;;;;;7358300;19;20139;-42
2022/01/25 03:02:47;;;;;;;28.90;16.30;;;;;;;;;;7361113;19;20516;-42
2022/01/25 03:05:21;;;;;;;26.15;15.00;;;;;;;;;;7371771;19;21109;-41
2022/01/25 03:07:56;;;;;;;27.98;14.65;;;;;;;;;;7364038;19;20490;-42
2022/01/25 03:10:38;;;;;;;24.92;15.40;;;;;;;;;;7366563;19;20131;-41
2022/01/25 03:13:15;;;;;;;32.85;15.55;;;;;;;;;;7369388;19;20142;-42
2022/01/25 03:15:59;;;;;;;26.65;14.88;;;;;;;;;;7362549;19;20618;-42
2022/01/25 03:18:43;;;;;;;25.88;15.15;;;;;;;;;;7365190;19;20132;-43
2022/01/25 03:21:32;;;;;;;27.98;16.08;;;;;;;;;;7369781;19;20568;-42
2022/01/25 03:24:06;;;;;;;26.80;13.60;;;;;;;;;;7367002;19;20207;-43
2022/01/25 03:26:38;;;;;;;28.17;14.63;;;;;;;;;;7367289;19;20579;-43
2022/01/25 03:29:08;;;;;;;30.10;14.90;;;;;;;;;;7365624;19;20202;-42
2022/01/25 03:31:37;;;;;;;25.58;15.15;;;;;;;;;;7364900;19;20243;-42
2022/01/25 03:34:07;;;;;;;29.23;15.27;;;;;;;;;;7362009;19;20128;-42
2022/01/25 03:36:37;;;;;;;29.02;15.68;;;;;;;;;;7363304;19;21278;-42
2022/01/25 03:39:09;;;;;;;29.85;16.48;;;;;;;;;;7370401;19;20147;-42
2022/01/25 03:41:39;;;;;;;27.80;15.50;;;;;;;;;;7370465;19;20131;-42
2022/01/25 03:44:12;;;;;;;31.08;15.63;;;;;;;;;;7369357;19;20187;-42
2022/01/25 03:47:00;;;;;;;28.75;15.82;;;;;;;;;;7360414;19;20616;-43
2022/01/25 03:52:16;;;;;;;24.80;13.00;;;;;;;;;;7360835;19;20713;-43
2022/01/25 03:54:48;;;;;;;26.08;13.98;;;;;;;;;;7367213;19;20598;-43
2022/01/25 03:57:21;;;;;;;29.50;14.55;;;;;;;;;;7361496;19;20123;-41
2022/01/25 03:59:50;;;;;;;30.70;15.18;;;;;;;;;;7359113;19;20127;-41
2022/01/25 04:02:23;;;;;;;27.67;14.70;;;;;;;;;;7344019;19;20649;-41
2022/01/25 04:04:59;;;;;;;25.98;14.95;;;;;;;;;;7366206;19;20998;-41
2022/01/25 04:07:42;;;;;;;28.38;15.90;;;;;;;;;;7355748;19;20135;-41
2022/01/25 04:10:17;;;;;;;28.75;14.05;;;;;;;;;;7363796;19;20123;-41
2022/01/25 04:12:48;;;;;;;27.63;14.98;;;;;;;;;;7371760;19;20131;-42
2022/01/25 04:15:18;;;;;;;24.02;14.02;;;;;;;;;;7371646;19;20139;-42
2022/01/25 04:17:57;;;;;;;25.55;14.18;;;;;;;;;;7373684;19;21025;-41
2022/01/25 04:20:32;;;;;;;27.67;14.02;;;;;;;;;;7362188;19;20142;-42
2022/01/25 04:25:55;;;;;;;30.02;15.65;;;;;;;;;;7367544;19;20123;-42
2022/01/25 04:28:30;;;;;;;27.90;16.10;;;;;;;;;;7371909;19;20127;-42
2022/01/25 04:31:00;;;;;;;26.90;13.90;;;;;;;;;;7373885;19;20132;-42
2022/01/25 04:33:39;;;;;;;24.98;14.32;;;;;;;;;;7370151;19;20683;-42
2022/01/25 04:36:27;;;;;;;25.65;15.82;;;;;;;;;;7373873;19;20199;-42
2022/01/25 04:49:57;;;;;;;27.45;14.43;;;;;;;;;;7362620;19;20156;-41
2022/01/25 04:52:32;;;;;;;25.75;13.98;;;;;;;;;;7359983;19;20929;-42
2022/01/25 04:55:09;;;;;;;26.23;14.30;;;;;;;;;;7374257;19;20155;-42
2022/01/25 04:57:47;;;;;;;20.48;13.18;;;;;;;;;;7358193;19;20135;-43
2022/01/25 05:00:20;;;;;;;31.30;14.10;;;;;;;;;;7363293;19;20234;-43
2022/01/25 05:02:56;;;;;;;27.38;14.35;;;;;;;;;;7359388;19;20267;-41
2022/01/25 05:05:31;;;;;;;24.50;14.93;;;;;;;;;;7361502;19;20136;-42
2022/01/25 05:08:14;;;;;;;26.27;14.35;;;;;;;;;;7366629;19;21508;-43
2022/01/25 05:10:50;;;;;;;27.83;13.50;;;;;;;;;;7362037;19;20166;-42
2022/01/25 05:13:38;;;;;;;29.58;14.85;;;;;;;;;;7367191;19;20130;-42
2022/01/25 05:16:15;;;;;;;24.80;14.10;;;;;;;;;;7369138;19;20194;-42
2022/01/25 05:18:50;;;;;;;22.33;12.40;;;;;;;;;;7369097;19;20132;-43
2022/01/25 05:24:04;;;;;;;29.33;14.57;;;;;;;;;;7362771;19;20147;-41
2022/01/25 05:26:33;;;;;;;27.23;15.75;;;;;;;;;;7359584;19;20139;-41
2022/01/25 05:29:05;;;;;;;32.80;16.27;;;;;;;;;;7361616;19;20150;-42
2022/01/25 05:31:35;;;;;;;30.60;15.88;;;;;;;;;;7367036;19;20413;-42
2022/01/25 05:34:07;;;;;;;29.67;15.20;;;;;;;;;;7356992;19;20136;-42
2022/01/25 05:36:36;;;;;;;26.55;14.52;;;;;;;;;;7365933;19;20589;-42
2022/01/25 05:39:12;;;;;;;29.25;15.68;;;;;;;;;;7375863;19;20139;-41
2022/01/25 05:41:53;;;;;;;27.50;15.57;;;;;;;;;;7369937;19;20131;-41
2022/01/25 05:44:39;;;;;;;24.27;15.27;;;;;;;;;;7358385;19;20135;-42
2022/01/25 05:47:13;;;;;;;28.40;15.80;;;;;;;;;;7362073;19;20610;-41
2022/01/25 05:49:45;;;;;;;26.17;14.73;;;;;;;;;;7362260;19;20163;-41
2022/01/25 05:52:15;;;;;;;25.80;14.60;;;;;;;;;;7358676;19;20132;-41
2022/01/25 05:54:47;;;;;;;25.27;14.15;;;;;;;;;;7369876;19;20142;-42
2022/01/25 05:57:19;;;;;;;25.83;13.27;;;;;;;;;;7365975;19;20123;-41
2022/01/25 05:59:51;;;;;;;27.08;15.43;;;;;;;;;;7365027;19;20253;-41
2022/01/25 06:02:23;;;;;;;30.10;16.80;;;;;;;;;;7354933;19;20155;-40
2022/01/25 06:04:55;;;;;;;25.98;15.13;;;;;;;;;;7363993;19;20135;-42
2022/01/25 06:07:28;;;;;;;22.77;13.70;;;;;;;;;;7360486;19;20136;-41
2022/01/25 06:09:57;;;;;;;31.65;15.88;;;;;;;;;;7364899;19;20179;-42
2022/01/25 06:12:29;;;;;;;30.63;14.63;;;;;;;;;;7366613;19;20251;-41
2022/01/25 06:15:03;;;;;;;27.13;13.75;;;;;;;;;;7365758;19;20501;-42
2022/01/25 06:17:33;;;;;;;30.02;15.60;;;;;;;;;;7359072;19;20136;-42
2022/01/25 06:20:03;;;;;;;30.05;15.85;;;;;;;;;;7365765;19;20127;-42
2022/01/25 06:22:35;;;;;;;24.67;14.88;;;;;;;;;;7363696;19;20146;-42
2022/01/25 06:25:10;;;;;;;28.23;15.45;;;;;;;;;;7372911;19;20140;-41
2022/01/25 06:27:40;;;;;;;30.35;14.63;;;;;;;;;;7366405;19;20165;-41
2022/01/25 06:30:17;;;;;;;28.67;15.82;;;;;;;;;;7366686;19;20128;-42
2022/01/25 06:32:47;;;;;;;26.05;16.13;;;;;;;;;;7360533;19;20134;-41
2022/01/25 06:35:17;;;;;;;24.83;14.85;;;;;;;;;;7366957;19;21148;-41
2022/01/25 06:37:47;;;;;;;31.20;15.43;;;;;;;;;;7363416;19;20146;-42
2022/01/25 06:40:17;;;;;;;29.40;15.40;;;;;;;;;;7367249;19;20128;-38
2022/01/25 06:42:49;;;;;;;27.58;15.77;;;;;;;;;;7373888;19;20123;-38
2022/01/25 06:45:24;;;;;;;29.55;15.00;;;;;;;;;;7360999;19;20131;-38
2022/01/25 06:47:54;;;;;;;32.05;16.17;;;;;;;;;;7358055;19;20127;-39
2022/01/25 06:50:25;;;;;;;25.48;14.57;;;;;;;;;;7366357;19;20139;-38
2022/01/25 06:52:55;;;;;;;31.20;14.60;;;;;;;;;;7352076;19;20174;-38
2022/01/25 06:55:27;;;;;;;33.40;15.77;;;;;;;;;;7364345;19;20138;-38
2022/01/25 06:57:58;;;;;;;28.63;14.45;;;;;;;;;;7358942;19;20142;-38
2022/01/25 07:00:31;;;;;;;28.75;15.18;;;;;;;;;;7364205;19;20138;-38
2022/01/25 07:03:02;;;;;;;30.00;16.45;;;;;;;;;;7363337;19;20254;-38
2022/01/25 07:05:32;;;;;;;28.85;17.05;;;;;;;;;;7358722;19;20136;-38
2022/01/25 07:08:05;;;;;;;31.75;19.15;;;;;;;;;;7364092;19;20227;-38
2022/01/25 07:10:37;;;;;;;27.95;16.80;;;;;;;;;;7367717;19;20159;-41
2022/01/25 07:13:07;;;;;;;31.10;18.05;;;;;;;;;;7367673;19;20132;-41
2022/01/25 07:15:39;;;;;;;31.50;17.20;;;;;;;;;;7371657;19;20630;-41
2022/01/25 07:18:09;;;;;;;35.47;19.35;;;;;;;;;;7362660;19;20132;-40
2022/01/25 07:20:41;;;;;;;35.42;17.98;;;;;;;;;;7367291;19;20127;-41
2022/01/25 07:23:11;;;;;;;27.77;15.20;;;;;;;;;;7359142;19;20136;-41
2022/01/25 07:25:43;;;;;;;29.23;15.57;;;;;;;;;;7363894;19;20215;-42
2022/01/25 07:28:13;;;;;;;29.67;16.23;;;;;;;;;;7368807;19;20131;-41
2022/01/25 07:30:50;;;;;;;29.02;15.45;;;;;;;;;;7371017;19;20474;-42
2022/01/25 07:33:19;;;;;;;28.00;17.70;;;;;;;;;;7368427;19;20496;-41
2022/01/25 07:35:49;;;;;;;30.00;17.92;;;;;;;;;;7365565;19;20136;-41
2022/01/25 07:38:19;;;;;;;30.33;17.83;;;;;;;;;;7365837;19;20135;-41
2022/01/25 07:40:48;;;;;;;26.23;15.55;;;;;;;;;;7358016;19;20143;-41
2022/01/25 07:43:18;;;;;;;34.38;16.55;;;;;;;;;;7369834;19;20638;-42
2022/01/25 07:45:53;;;;;;;27.98;15.90;;;;;;;;;;7371549;19;20423;-41
2022/01/25 07:48:25;;;;;;;28.35;15.50;;;;;;;;;;7371361;19;20127;-43
2022/01/25 07:50:55;;;;;;;31.23;15.93;;;;;;;;;;7372659;19;20561;-41
2022/01/25 07:53:24;;;;;;;31.40;15.07;;;;;;;;;;7371713;19;20595;-42
2022/01/25 07:55:54;;;;;;;23.05;14.57;;;;;;;;;;7373387;19;20132;-41
2022/01/25 07:58:23;;;;;;;24.13;13.70;;;;;;;;;;7369487;19;20143;-41
2022/01/25 08:01:01;;;;;;;26.85;15.23;;;;;;;;;;7363730;19;20421;-41
2022/01/25 08:03:33;;;;;;;24.90;14.20;;;;;;;;;;7375524;19;20139;-42
2022/01/25 08:06:07;;;;;;;25.75;13.90;;;;;;;;;;7369599;19;20772;-42
2022/01/25 08:08:36;;;;;;;30.65;16.42;;;;;;;;;;7362081;19;20161;-42
2022/01/25 08:11:06;;;;;;;30.48;15.77;;;;;;;;;;7361408;19;20146;-42
2022/01/25 08:13:45;;;;;;;38.90;15.75;;;;;;;;;;7362377;19;20900;-40
2022/01/25 08:16:17;;;;;;;27.50;15.75;;;;;;;;;;7372573;19;20127;-42
2022/01/25 08:18:47;;;;;;;28.27;15.10;;;;;;;;;;7368869;19;20135;-41
2022/01/25 08:21:16;;;;;;;28.05;16.60;;;;;;;;;;7370577;19;20123;-42
2022/01/25 08:23:46;;;;;;;28.33;14.77;;;;;;;;;;7370587;19;20139;-41
2022/01/25 08:26:16;;;;;;;24.67;14.30;;;;;;;;;;7374271;19;20609;-41
2022/01/25 08:28:47;;;;;;;23.20;14.27;;;;;;;;;;7372545;19;20124;-42
2022/01/25 08:31:25;;;;;;;28.15;14.93;;;;;;;;;;7370067;19;20472;-42
2022/01/25 08:33:55;;;;;;;31.13;15.98;;;;;;;;;;7377575;19;20161;-42
2022/01/25 08:36:27;;;;;;;26.48;15.10;;;;;;;;;;7376041;19;20131;-42
2022/01/25 08:38:57;;;;;;;25.63;16.80;;;;;;;;;;7366402;19;20163;-42
2022/01/25 08:41:27;;;;;;;27.48;15.27;;;;;;;;;;7373883;19;20558;-42
2022/01/25 08:43:56;;;;;;;33.78;17.35;;;;;;;;;;7375021;19;20120;-42
2022/01/25 08:46:29;;;;;;;30.88;16.20;;;;;;;;;;7377550;19;20486;-42
2022/01/25 08:49:01;;;;;;;27.77;16.65;;;;;;;;;;7368877;19;20123;-41
2022/01/25 08:51:33;;;;;;;28.13;16.42;;;;;;;;;;7370302;19;20127;-42
2022/01/25 08:54:05;;;;;;;30.02;17.48;;;;;;;;;;7377083;19;20131;-43
2022/01/25 08:56:35;;;;;;;28.23;15.75;;;;;;;;;;7368489;19;20792;-41
2022/01/25 08:59:06;;;;;;;24.77;15.27;;;;;;;;;;7376890;19;20128;-41
2022/01/25 09:01:39;;;;;;;27.48;17.60;;;;;;;;;;7364114;19;20166;-41
2022/01/25 09:04:09;;;;;;;26.88;17.15;;;;;;;;;;7373412;19;20515;-41
2022/01/25 09:06:38;;;;;;;27.67;16.15;;;;;;;;;;7374187;19;20218;-42
2022/01/25 09:09:17;;;;;;;29.85;15.27;;;;;;;;;;7362443;19;20139;-42
2022/01/25 09:11:46;;;;;;;31.42;17.80;;;;;;;;;;7375327;19;20470;-41
2022/01/25 09:14:16;;;;;;;30.77;18.25;;;;;;;;;;7371017;19;20135;-43
2022/01/25 09:16:51;;;;;;;30.40;18.65;;;;;;;;;;7364878;19;20142;-42
2022/01/25 09:19:20;;;;;;;30.75;18.42;;;;;;;;;;7368615;19;20147;-41
2022/01/25 09:21:50;;;;;;;27.15;17.17;;;;;;;;;;7372850;19;20135;-43
2022/01/25 09:24:24;;;;;;;30.60;18.88;;;4.00;74.10;;;;;;7372797;19;20131;-43
2022/01/25 09:26:56;;;;;;;27.93;18.23;;;9.60;53.90;;;;;;7374469;19;20127;-42
2022/01/25 09:29:28;;;;;;;27.87;18.70;;;10.10;50.10;;;;;;7365575;19;20833;-42
2022/01/25 09:32:00;;;;;;;24.93;16.57;;;;;;;;;;7376032;19;20925;-42
2022/01/25 09:34:32;;;;;;;26.50;18.33;;;;;;;;;;7367147;19;20443;-43
2022/01/25 09:37:05;;;;;;;26.80;18.50;;;10.20;49.90;;;;;;7358690;19;20372;-42
2022/01/25 09:39:34;;;;;;;23.30;16.90;;;12.50;44.20;;;;;;7374845;19;21518;-42
2022/01/25 09:42:08;;;;;;;22.33;18.17;;;12.60;44.00;;;;;;7370582;19;20388;-42
2022/01/25 09:44:38;;;;;;;27.33;17.73;;;;;;;;;;7373985;19;20417;-45
2022/01/25 09:47:12;;;;;;;29.27;16.50;;;;;;;;;;7372154;19;20886;-46
2022/01/25 09:49:42;;;;;;;23.83;16.77;;;12.70;43.90;;;;;;7369766;19;20391;-45
2022/01/25 09:52:12;;;;;;;24.33;18.00;;;11.10;46.50;;;;;;7377369;19;20380;-45
2022/01/25 09:54:42;;;;;;;24.07;17.60;;;11.10;46.70;;;;;;7372458;19;20395;-45
2022/01/25 09:57:11;;;;;;;26.30;17.70;;;10.60;47.70;;;;;;7363486;19;20412;-45
2022/01/25 09:59:44;;;;;;;25.27;17.77;;;10.80;47.30;;;;;;7363300;19;20432;-44
2022/01/25 10:02:42;;;;;;;26.27;17.80;;;10.20;48.50;;;;;;7361808;19;20435;-46
2022/01/25 10:05:23;;;;;;;28.23;19.10;;;10.30;48.40;;;;;;7369749;19;20390;-45
2022/01/25 10:08:02;;;;;;;26.50;17.37;;;10.30;48.70;;;;;;7361721;19;20383;-45
2022/01/25 10:10:33;;;;;;;26.20;17.53;;;10.30;48.30;;;;;;7367660;19;20372;-45
2022/01/25 10:13:14;;;;;;;30.00;18.90;;;11.30;47.20;;;;;;7361226;19;20930;-45
2022/01/25 10:15:47;;;;;;;28.60;19.80;;;11.80;45.80;;;;;;7359679;19;20372;-45
2022/01/25 10:18:21;;;;;;;29.10;18.97;;;11.70;46.20;;;;;;7361795;19;20440;-45
2022/01/25 10:20:53;;;;;;;31.30;18.93;;;10.00;47.10;;;;;;7353702;19;20832;-45
2022/01/25 10:23:30;;;;;;;26.77;17.97;;;10.20;48.40;;;;;;7367203;19;20365;-46
2022/01/25 10:26:05;;;;;;;27.20;18.07;;;10.10;48.90;;;;;;7365544;19;20376;-46
2022/01/25 10:28:35;;;;;;;26.90;17.63;;;10.20;48.60;;;;;;7363605;19;20949;-47
2022/01/25 10:31:07;;;;;;;28.73;17.40;;;10.50;48.60;;;;;;7365507;19;20395;-46
2022/01/25 10:33:49;;;;;;;24.10;17.37;;;11.60;47.60;;;;;;7364017;19;20376;-46
2022/01/25 10:36:23;;;;;;;22.60;16.37;;;11.40;47.10;;;;;;7368957;19;20928;-46
2022/01/25 10:38:57;;;;;;;25.67;17.03;;;11.90;46.00;;;;;;7364659;19;20439;-46
2022/01/25 10:41:31;;;;;;;32.20;16.23;;;12.30;46.00;;;;;;7358363;19;20942;-47
2022/01/25 10:44:01;;;;;;;63.53;21.27;;;12.50;45.50;;;;;;7365427;19;20485;-46
2022/01/25 10:46:32;;;;;;;26.10;17.13;;;12.10;45.70;;;;;;7363427;19;20389;-46
2022/01/25 10:49:06;;;;;;;31.20;16.97;;;;;;;;;;7369335;19;20364;-46
2022/01/25 10:51:38;;;;;;;26.63;17.60;;;;;;;;;;7359197;19;20901;-46
2022/01/25 10:54:11;;;;;;;26.10;18.37;;;13.50;43.50;;;;;;7360187;19;21738;-45
2022/01/25 10:56:49;;;;;;;23.03;17.20;;;15.30;40.00;;;;;;7364071;19;20433;-46
2022/01/25 10:59:20;;;;;;;23.80;17.37;;;14.40;41.00;;;;;;7351306;19;21279;-46
2022/01/25 11:01:53;;;;;;;24.60;17.20;;;14.10;42.10;;;;;;7361734;19;21161;-46
2022/01/25 11:04:34;;;;;;;24.00;17.90;;;14.10;42.20;;;;;;7367277;19;20371;-46
2022/01/25 11:07:06;;;;;;;24.97;16.83;;;13.80;42.40;;;;;;7364462;19;20384;-45
2022/01/25 11:09:43;;;;;;;27.80;17.80;;;14.40;41.10;;;;;;7346899;19;20464;-45
2022/01/25 11:12:15;;;;;;;23.20;16.60;;;13.90;42.00;;;;;;7359457;19;20724;-45
2022/01/25 11:14:54;;;;;;;29.03;16.40;;;14.40;40.80;;;;;;7355139;19;20375;-45
2022/01/25 11:17:26;;;;;;;26.60;17.03;;;13.30;42.40;;;;;;7363282;19;20737;-45
2022/01/25 11:20:01;;;;;;;25.50;17.37;;;13.80;42.20;;;;;;7356146;19;21077;-65
2022/01/25 11:22:32;;;;;;;21.70;16.23;;;14.20;41.50;;;;;;7366868;19;20953;-65
2022/01/25 11:25:03;;;;;;;22.90;16.17;;;13.60;42.20;;;;;;7374509;19;20400;-65
2022/01/25 11:27:34;;;;;;;21.77;16.37;;;14.00;41.50;;;;;;7369688;19;20371;-66
2022/01/25 11:30:07;;;;;;;22.07;17.00;;;13.70;41.50;;;;;;7376753;19;20591;-72
2022/01/25 11:32:43;;;;;;;33.47;18.37;;;13.50;41.80;;;;;;7374175;19;21021;-72
2022/01/25 11:35:18;;;;;;;23.70;16.50;;;13.50;41.90;;;;;;7372753;19;20412;-72
2022/01/25 11:37:50;;;;;;;26.43;18.20;;;13.10;42.00;;;;;;7374948;19;20482;-72
2022/01/25 11:40:28;;;;;;;27.43;18.20;;;13.50;42.60;;;;;;7370933;19;20375;-71
2022/01/25 11:43:00;;;;;;;25.17;16.30;;;13.70;41.70;;;;;;7346683;19;20375;-74
2022/01/25 11:45:35;;;;;;;25.50;18.47;;;14.00;41.60;;;;;;7371935;19;20491;-70
2022/01/25 11:48:06;;;;;;;23.53;16.83;;;13.00;42.30;;;;;;7368850;19;20928;-70
2022/01/25 11:50:40;;;;;;;26.30;18.73;;;12.20;44.20;;;;;;7371483;19;20376;-71
2022/01/25 11:53:11;;;;;;;25.80;18.30;;;;;;;;;;7371205;19;20741;-70
2022/01/25 11:55:43;;;;;;;27.07;18.23;;;11.50;45.10;;;;;;7360435;19;21065;-70
2022/01/25 11:58:16;;;;;;;28.10;18.10;;;10.70;48.50;;;;;;7344026;19;20404;-71
2022/01/25 12:00:48;;;;;;;29.60;19.37;;;11.30;47.80;;;;;;7355621;19;20484;-70
2022/01/25 12:03:26;;;;;;;30.80;19.03;;;12.10;44.90;;;;;;7358866;19;20400;-71
2022/01/25 12:06:04;;;;;;;24.03;17.77;;;12.50;45.40;;;;;;7370057;19;20377;-71
2022/01/25 12:08:53;;;;;;;27.93;17.77;;;13.80;42.60;;;;;;7367872;19;20437;-70
2022/01/25 12:11:37;;;;;;;27.33;18.37;;;14.00;43.20;;;;;;7360261;19;20435;-71
2022/01/25 12:14:16;;;;;;;30.37;20.17;;;14.10;42.00;;;;;;7372791;19;20397;-71
2022/01/25 12:16:48;;;;;;;26.57;17.90;;;13.70;42.70;;;;;;7367457;19;21785;-70
2022/01/25 12:19:19;;;;;;;25.80;18.40;;;13.40;43.40;;;;;;7368783;19;20428;-70
2022/01/25 12:22:15;;;;;;;27.50;19.67;;;12.80;44.40;;;;;;7376234;19;20371;-70
2022/01/25 12:25:06;;;;;;;27.83;18.83;;;12.00;45.60;;;;;;7362726;19;21000;-69
2022/01/25 12:27:47;;;;;;;27.07;18.53;;;12.70;45.10;;;;;;7361168;19;20945;-70
2022/01/25 12:30:22;;;;;;;34.13;20.40;;;11.90;46.10;;;;;;7367310;19;20397;-69
2022/01/25 12:33:00;;;;;;;35.20;19.50;;;;;;;;;;7373664;19;20411;-70
2022/01/25 12:35:40;;;;;;;28.50;18.93;;;;;;;;;;7373871;19;20833;-70
2022/01/25 12:38:13;;;;;;;31.27;20.03;;;;;;;;;;7376112;19;20418;-71
2022/01/25 12:41:03;;;;;;;28.40;19.97;;;;;;;;;;7368977;19;20825;-71
2022/01/25 12:43:35;;;;;;;35.27;20.77;;;;;;;;;;7376770;19;20416;-71
2022/01/25 12:46:06;;;;;;;32.80;20.40;;;;;;;;;;7378106;19;20379;-72
2022/01/25 12:48:39;;;;;;;29.03;19.07;;;11.00;47.20;;;;;;7366537;19;20415;-73
2022/01/25 12:51:12;;;;;;;31.53;19.60;;;9.70;51.80;;;;;;7375142;19;20388;-71
2022/01/25 12:53:45;;;;;;;31.67;20.00;;;9.80;51.80;;;;;;7378377;19;20409;-72
2022/01/25 12:56:19;;;;;;;31.33;18.87;;;9.40;52.10;;;;;;7369616;19;20416;-72
2022/01/25 12:58:52;;;;;;;30.47;19.77;;;9.50;53.30;;;;;;7375360;19;20424;-72
2022/01/25 13:01:26;;;;;;;30.50;19.43;;;9.30;52.30;;;;;;7364157;19;20419;-72
2022/01/25 13:03:59;;;;;;;32.70;20.48;;;9.10;53.00;;;;;;7359832;19;20428;-72
2022/01/25 13:06:30;;;;;;;35.13;22.13;;;8.90;53.90;;;;;;7364020;19;20146;-72
2022/01/25 13:09:08;;;;;;;31.73;19.90;;;8.60;54.30;;;;;;7355911;19;21069;-72
2022/01/25 13:12:09;;;;;;;79.03;22.33;;;8.40;55.00;;;;;;7366758;19;20595;-72
2022/01/25 13:15:04;;;;;;;37.90;19.27;;;8.50;55.20;;;;;;7375569;19;20128;-72
2022/01/25 13:17:33;;;;;;;33.17;19.83;;;8.50;55.10;;;;;;7334709;19;21680;-72
2022/01/25 13:20:06;;;;;;;33.10;20.45;;;8.40;55.50;;;;;;7375905;19;20164;-71
2022/01/25 13:22:42;;;;;;;31.93;20.80;;;8.50;55.30;;;;;;7360749;19;20584;-70
2022/01/25 13:25:26;;;;;;;30.55;19.88;;;8.60;55.30;;;;;;7375269;19;20400;-72
2022/01/25 13:28:08;;;;;;;32.55;20.27;;;8.50;55.00;;;;;;7373734;19;20207;-70
2022/01/25 13:30:40;;;;;;;32.72;19.55;;;8.40;55.00;;;;;;7372025;19;20151;-70
2022/01/25 13:33:10;;;;;;;36.53;20.73;;;8.00;56.80;;;;;;7370853;19;20155;-71
2022/01/25 13:35:47;;;;;;;33.75;19.40;;;7.90;56.70;;;;;;7369047;19;20132;-71
2022/01/25 13:38:19;;;;;;;30.90;19.30;;;7.90;56.50;;;;;;7367858;19;20138;-71
2022/01/25 13:40:56;;;;;;;35.28;19.90;;;8.00;56.30;;;;;;7368960;19;20405;-71
2022/01/25 13:45:43;;;;;;;34.75;19.15;;;8.00;56.00;;;;;;7366000;19;20434;-71
2022/01/25 13:46:23;;;;;;;29.60;18.45;;;7.80;56.60;;;;;;7373708;19;20164;-71
2022/01/25 13:48:54;;;;;;;33.42;19.77;;;7.70;57.00;;;;;;7373921;19;20158;-71
2022/01/25 13:51:25;;;;;;;31.25;19.30;;;7.60;57.40;;;;;;7366421;19;20207;-70
2022/01/25 13:53:57;;;;;;;33.72;19.00;;;7.50;57.20;;;;;;7355268;19;20903;-72
2022/01/25 13:56:28;;;;;;;31.27;20.05;;;;;;;;;;7362565;19;20151;-71
2022/01/25 13:59:01;;;;;;;34.88;19.83;;;;;;;;;;7354095;19;21110;-71
2022/01/25 14:01:32;;;;;;;31.40;19.48;;;;;;;;;;7355872;19;20163;-72
2022/01/25 14:04:03;;;;;;;36.50;21.02;;;;;;;;;;7369056;19;20183;-72
2022/01/25 14:06:33;;;;;;;36.70;20.90;;;;;;;;;;7371266;19;20931;-72
2022/01/25 14:09:04;;;;;;;57.50;24.45;;;;;;;;;;7364164;19;20159;-72
2022/01/25 14:11:49;;;;;;;42.33;21.52;;;;;;;;;;7371045;19;20143;-68
2022/01/25 14:22:52;;;;;;;43.63;23.83;;;;;;;;;;7370210;19;20143;-69
2022/01/25 14:25:30;;;;;;;34.80;20.23;;;;;;;;;;7371287;19;20145;-68
2022/01/25 14:28:01;;;;;;;42.03;23.50;;;;;;;;;;7364034;19;22187;-68
2022/01/25 14:30:36;;;;;;;45.53;22.38;;;;;;;;;;7367801;19;20498;-68
2022/01/25 14:33:11;;;;;;;36.97;22.15;;;7.60;57.40;;;;;;7371437;19;20152;-68
2022/01/25 14:35:45;;;;;;;47.58;23.27;;;;;;;;;;7365058;19;20155;-68
2022/01/25 14:38:19;;;;;;;69.05;26.20;;;;;;;;;;7371030;19;20139;-69
2022/01/25 14:41:04;;;;;;;36.28;22.33;;;;;;;;;;7355895;19;20158;-72
2022/01/25 14:43:36;;;;;;;40.53;21.52;;;;;;;;;;7355646;19;20139;-73
2022/01/25 14:46:13;;;;;;;40.83;23.45;;;;;;;;;;7372443;19;20142;-72
2022/01/25 14:48:45;;;;;;;42.90;22.02;;;;;;;;;;7372808;19;20143;-73
2022/01/25 14:51:16;;;;;;;38.53;21.95;;;;;;;;;;7371452;19;20899;-72
2022/01/25 14:53:46;;;;;;;37.13;21.33;;;;;;;;;;7365145;19;20139;-72
2022/01/25 14:56:19;;;;;;;39.78;21.90;;;;;;;;;;7367819;19;20150;-72
2022/01/25 15:01:34;;;;;;;38.47;21.55;;;;;;;;;;7362305;19;20636;-71
2022/01/25 15:04:04;;;;;;;43.50;22.70;;;;;;;;;;7361106;19;20172;-71
2022/01/25 15:06:34;;;;;;;43.28;22.48;;;;;;;;;;7371355;19;20501;-72
2022/01/25 15:09:03;;;;;;;40.40;21.17;;;;;;;;;;7368469;19;20143;-74
2022/01/25 15:11:33;;;;;;;44.67;22.65;;;;;;;;;;7370094;19;20132;-71
2022/01/25 15:14:08;;;;;;;46.35;23.23;;;;;;;;;;7375399;19;20139;-71
2022/01/25 15:16:40;;;;;;;45.65;23.77;;;;;;;;;;7371633;19;20626;-71
2022/01/25 15:19:10;;;;;;;41.58;22.98;;;;;;;;;;7372292;19;20158;-71
2022/01/25 15:21:40;;;;;;;50.85;26.77;;;;;;;;;;7367077;19;20146;-72
2022/01/25 15:24:11;;;;;;;42.15;23.50;;;;;;;;;;7366222;19;20136;-71
2022/01/25 15:26:42;;;;;;;49.55;23.88;;;6.50;61.30;;;;;;7367133;19;20151;-70
2022/01/25 15:29:19;;;;;;;51.58;25.98;;;5.50;66.90;;;;;;7374269;19;20653;-72
2022/01/25 15:31:54;;;;;;;41.60;21.77;;;5.30;66.80;;;;;;7354154;19;20162;-71
2022/01/25 15:34:24;;;;;;;50.63;25.35;;;5.20;67.60;;;;;;7365436;19;20152;-72
2022/01/25 15:36:55;;;;;;;50.72;24.63;;;5.20;67.80;;;;;;7368222;19;20159;-71